createdAt,value
2019-03-21T00:01:33.712Z,9.56
2019-03-21T00:04:11.678Z,9.60
2019-03-21T00:06:43.551Z,9.62
2019-03-21T00:09:17.643Z,9.62
2019-03-21T00:12:00.505Z,9.62
2019-03-21T00:14:41.317Z,9.74
2019-03-21T00:17:13.436Z,9.72
2019-03-21T00:19:45.614Z,9.68
2019-03-21T00:22:17.359Z,9.72
2019-03-21T00:24:49.133Z,9.71
2019-03-21T00:27:20.907Z,9.75
2019-03-21T00:29:52.821Z,9.73
2019-03-21T00:32:24.570Z,9.75
2019-03-21T00:34:56.757Z,9.90
2019-03-21T00:37:28.842Z,9.81
2019-03-21T00:40:00.656Z,9.74
2019-03-21T00:42:32.453Z,9.77
2019-03-21T00:45:04.694Z,9.79
2019-03-21T00:47:36.835Z,9.82
2019-03-21T00:50:10.583Z,9.86
2019-03-21T00:52:42.309Z,9.79
2019-03-21T00:55:14.041Z,9.76
2019-03-21T00:57:45.890Z,9.80
2019-03-21T01:00:25.437Z,9.82
2019-03-21T01:02:57.267Z,9.78
2019-03-21T01:05:28.984Z,9.76
2019-03-21T01:08:00.731Z,9.80
2019-03-21T01:10:32.889Z,9.78
2019-03-21T01:13:04.844Z,9.80
2019-03-21T01:15:36.561Z,9.87
2019-03-21T01:18:08.255Z,9.87
2019-03-21T01:20:40.111Z,9.86
2019-03-21T01:23:11.768Z,9.84
2019-03-21T01:25:49.364Z,9.88
2019-03-21T01:28:21.039Z,9.87
2019-03-21T01:30:52.832Z,9.92
2019-03-21T01:33:24.942Z,9.92
2019-03-21T01:35:56.598Z,9.88
2019-03-21T01:38:28.391Z,9.89
2019-03-21T01:41:00.182Z,9.96
2019-03-21T01:43:32.313Z,9.95
2019-03-21T01:46:05.400Z,9.91
2019-03-21T01:48:37.438Z,9.89
2019-03-21T01:51:09.633Z,9.94
2019-03-21T01:53:41.438Z,9.97
2019-03-21T01:56:15.711Z,9.95
2019-03-21T01:58:47.435Z,10.00
2019-03-21T02:01:19.305Z,10.01
2019-03-21T02:03:51.497Z,9.95
2019-03-21T02:06:23.379Z,9.96
2019-03-21T02:08:55.685Z,9.96
2019-03-21T02:11:27.593Z,9.92
2019-03-21T02:13:59.463Z,9.94
2019-03-21T02:16:31.709Z,9.97
2019-03-21T02:19:03.473Z,9.99
2019-03-21T02:21:35.234Z,9.94
2019-03-21T02:24:08.648Z,9.94
2019-03-21T02:26:40.445Z,10.01
2019-03-21T02:29:12.262Z,9.99
2019-03-21T02:31:44.059Z,9.99
2019-03-21T02:34:16.241Z,10.04
2019-03-21T02:36:48.952Z,9.95
2019-03-21T02:39:20.803Z,9.89
2019-03-21T02:41:52.735Z,9.93
2019-03-21T02:44:24.502Z,9.96
2019-03-21T02:46:56.238Z,9.93
2019-03-21T02:49:27.917Z,9.98
2019-03-21T02:52:01.193Z,9.99
2019-03-21T02:54:33.912Z,10.00
2019-03-21T02:57:05.634Z,9.99
2019-03-21T02:59:37.357Z,9.98
2019-03-21T03:02:09.049Z,9.92
2019-03-21T03:04:40.853Z,9.91
2019-03-21T03:07:12.490Z,9.96
2019-03-21T03:09:44.170Z,9.90
2019-03-21T03:12:15.876Z,9.91
2019-03-21T03:14:47.584Z,9.93
2019-03-21T03:17:19.617Z,9.92
2019-03-21T03:19:51.378Z,9.95
2019-03-21T03:22:23.026Z,9.92
2019-03-21T03:24:54.807Z,9.90
2019-03-21T03:27:26.817Z,9.93
2019-03-21T03:29:58.574Z,9.87
2019-03-21T03:32:30.217Z,9.87
2019-03-21T03:35:02.176Z,9.88
2019-03-21T03:37:34.008Z,9.91
2019-03-21T03:40:09.030Z,9.87
2019-03-21T03:42:40.806Z,9.83
2019-03-21T03:45:16.053Z,9.87
2019-03-21T03:47:48.055Z,9.74
2019-03-21T03:50:19.747Z,9.74
2019-03-21T03:52:51.786Z,9.73
2019-03-21T03:55:23.583Z,9.68
2019-03-21T03:57:56.281Z,9.62
2019-03-21T04:00:28.344Z,9.70
2019-03-21T04:03:00.073Z,9.69
2019-03-21T04:05:31.886Z,9.60
2019-03-21T04:08:03.616Z,9.64
2019-03-21T04:10:37.541Z,9.61
2019-03-21T04:13:09.249Z,9.65
2019-03-21T04:15:52.815Z,9.65
2019-03-21T04:18:15.835Z,9.62
2019-03-21T04:20:48.306Z,9.68
2019-03-21T04:23:20.467Z,9.63
2019-03-21T04:26:10.370Z,9.65
2019-03-21T04:28:42.850Z,9.65
2019-03-21T04:31:15.059Z,9.58
2019-03-21T04:33:46.959Z,9.57
2019-03-21T04:36:18.823Z,9.59
2019-03-21T04:38:50.574Z,9.63
2019-03-21T04:41:22.296Z,9.60
2019-03-21T04:43:54.162Z,9.61
2019-03-21T04:46:26.139Z,9.71
2019-03-21T04:48:57.888Z,9.73
2019-03-21T04:51:29.580Z,9.70
2019-03-21T04:54:01.379Z,9.62
2019-03-21T04:56:33.235Z,9.54
2019-03-21T04:59:05.001Z,9.45
2019-03-21T05:01:36.803Z,9.55
2019-03-21T05:04:08.590Z,9.43
2019-03-21T05:06:41.260Z,9.42
2019-03-21T05:09:16.812Z,9.46
2019-03-21T05:11:48.898Z,9.46
2019-03-21T05:14:20.666Z,9.42
2019-03-21T05:16:52.388Z,9.44
2019-03-21T05:19:24.092Z,9.50
2019-03-21T05:21:56.947Z,9.43
2019-03-21T05:24:28.837Z,9.45
2019-03-21T05:27:00.577Z,9.46
2019-03-21T05:29:32.628Z,9.46
2019-03-21T05:32:04.424Z,9.46
2019-03-21T05:34:36.301Z,9.32
2019-03-21T05:37:08.376Z,9.18
2019-03-21T05:39:40.252Z,9.14
2019-03-21T05:42:16.800Z,9.12
2019-03-21T05:44:48.556Z,9.07
2019-03-21T05:47:20.324Z,9.07
2019-03-21T05:49:52.150Z,9.16
2019-03-21T05:52:23.983Z,9.07
2019-03-21T05:54:55.777Z,9.04
2019-03-21T05:57:27.551Z,9.06
2019-03-21T05:59:59.299Z,9.07
2019-03-21T06:02:31.034Z,8.93
2019-03-21T06:05:02.830Z,8.87
2019-03-21T06:07:47.471Z,8.91
2019-03-21T06:10:19.824Z,8.86
2019-03-21T06:12:52.059Z,8.98
2019-03-21T06:15:27.511Z,8.88
2019-03-21T06:18:16.558Z,8.94
2019-03-21T06:21:05.188Z,8.92
2019-03-21T06:23:59.406Z,8.86
2019-03-21T06:26:57.962Z,8.86
2019-03-21T06:29:30.149Z,8.85
2019-03-21T06:32:02.058Z,8.89
2019-03-21T06:34:33.737Z,8.93
2019-03-21T06:37:05.559Z,8.90
2019-03-21T06:39:37.298Z,8.94
2019-03-21T06:42:09.087Z,8.93
2019-03-21T06:44:40.793Z,8.88
2019-03-21T06:47:12.633Z,8.97
2019-03-21T06:49:46.462Z,9.06
2019-03-21T06:52:17.743Z,9.05
2019-03-21T06:54:49.851Z,9.13
2019-03-21T06:57:21.798Z,9.06
2019-03-21T06:59:54.033Z,9.09
2019-03-21T07:02:25.870Z,9.14
2019-03-21T07:04:57.755Z,9.05
2019-03-21T07:07:29.875Z,9.13
2019-03-21T07:10:01.647Z,8.97
2019-03-21T07:12:33.414Z,8.91
2019-03-21T07:15:06.605Z,9.05
2019-03-21T07:17:38.389Z,9.09
2019-03-21T07:20:12.581Z,9.10
2019-03-21T07:22:44.301Z,9.04
2019-03-21T07:25:16.061Z,9.17
2019-03-21T07:27:47.806Z,9.11
2019-03-21T07:30:20.067Z,9.13
2019-03-21T07:32:51.896Z,9.12
2019-03-21T07:35:23.617Z,8.96
2019-03-21T07:37:56.402Z,9.07
2019-03-21T07:40:28.271Z,9.02
2019-03-21T07:42:59.999Z,8.98
2019-03-21T07:45:32.077Z,9.00
2019-03-21T07:48:05.277Z,9.01
2019-03-21T07:50:37.718Z,8.94
2019-03-21T07:53:09.788Z,9.02
2019-03-21T07:55:41.622Z,9.08
2019-03-21T07:58:14.611Z,8.99
2019-03-21T08:00:46.319Z,9.10
2019-03-21T08:03:18.103Z,9.00
2019-03-21T08:05:49.851Z,9.01
2019-03-21T08:08:21.587Z,9.04
2019-03-21T08:10:53.657Z,9.09
2019-03-21T08:13:26.000Z,9.13
2019-03-21T08:15:57.838Z,9.12
2019-03-21T08:18:29.773Z,9.14
2019-03-21T08:21:01.602Z,9.17
2019-03-21T08:23:33.361Z,9.23
2019-03-21T08:26:05.150Z,9.18
2019-03-21T08:28:37.835Z,9.12
2019-03-21T08:31:26.352Z,9.17
2019-03-21T08:33:58.490Z,9.25
2019-03-21T08:36:30.387Z,9.26
2019-03-21T08:39:02.195Z,9.18
2019-03-21T08:41:35.207Z,9.14
2019-03-21T08:44:06.965Z,9.17
2019-03-21T08:46:38.645Z,9.20
2019-03-21T08:49:10.396Z,9.33
2019-03-21T08:51:42.199Z,9.31
2019-03-21T08:54:14.046Z,9.33
2019-03-21T08:56:45.884Z,9.35
2019-03-21T08:59:19.473Z,9.40
2019-03-21T09:01:51.207Z,9.56
2019-03-21T09:04:23.070Z,9.46
2019-03-21T09:06:54.759Z,9.41
2019-03-21T09:09:26.513Z,9.39
2019-03-21T09:11:58.214Z,9.36
2019-03-21T09:14:30.056Z,9.45
2019-03-21T09:17:02.634Z,9.41
2019-03-21T09:19:34.355Z,9.40
2019-03-21T09:22:08.147Z,9.50
2019-03-21T09:24:41.903Z,9.63
2019-03-21T09:27:13.936Z,9.60
2019-03-21T09:29:53.355Z,9.73
2019-03-21T09:32:19.622Z,9.78
2019-03-21T09:34:51.428Z,9.90
2019-03-21T09:37:23.205Z,9.89
2019-03-21T09:39:55.128Z,9.94
2019-03-21T09:42:26.899Z,10.07
2019-03-21T09:44:58.752Z,10.07
2019-03-21T09:47:30.903Z,10.15
2019-03-21T09:50:02.719Z,10.28
2019-03-21T09:52:35.128Z,10.25
2019-03-21T09:55:08.562Z,10.33
2019-03-21T09:57:40.785Z,10.39
2019-03-21T10:00:12.857Z,10.28
2019-03-21T10:02:48.529Z,10.30
2019-03-21T10:05:22.889Z,10.43
2019-03-21T10:07:54.738Z,10.45
2019-03-21T10:10:31.309Z,10.52
2019-03-21T10:13:03.215Z,10.37
2019-03-21T10:15:35.301Z,10.41
2019-03-21T10:18:07.557Z,10.58
2019-03-21T10:20:39.344Z,10.64
2019-03-21T10:23:13.003Z,10.74
2019-03-21T10:25:44.728Z,10.68
2019-03-21T10:28:16.590Z,10.71
2019-03-21T10:30:48.323Z,10.78
2019-03-21T10:33:23.317Z,10.86
2019-03-21T10:35:55.121Z,10.78
2019-03-21T10:38:26.999Z,10.77
2019-03-21T10:40:58.745Z,10.70
2019-03-21T10:43:30.993Z,10.81
2019-03-21T10:46:02.735Z,10.82
2019-03-21T10:48:34.887Z,10.96
2019-03-21T10:51:15.044Z,10.92
2019-03-21T10:53:46.840Z,10.97
2019-03-21T10:56:18.559Z,11.08
2019-03-21T10:58:50.511Z,11.06
2019-03-21T11:01:22.228Z,11.04
2019-03-21T11:03:54.118Z,11.12
2019-03-21T11:06:26.242Z,11.05
2019-03-21T11:08:57.993Z,11.02
2019-03-21T11:11:29.683Z,11.11
2019-03-21T11:14:01.417Z,11.19
2019-03-21T11:16:33.236Z,11.23
2019-03-21T11:19:04.967Z,11.30
2019-03-21T11:21:36.777Z,11.29
2019-03-21T11:24:08.498Z,11.36
2019-03-21T11:26:40.764Z,11.36
2019-03-21T11:29:12.634Z,11.43
2019-03-21T11:31:44.358Z,11.48
2019-03-21T11:34:16.382Z,11.39
2019-03-21T11:36:49.128Z,11.53
2019-03-21T11:39:21.061Z,11.53
2019-03-21T11:41:52.848Z,11.52
2019-03-21T11:44:24.591Z,11.57
2019-03-21T11:46:56.434Z,11.53
2019-03-21T11:49:28.735Z,11.76
2019-03-21T11:52:00.543Z,11.63
2019-03-21T11:54:32.668Z,11.74
2019-03-21T11:57:04.595Z,11.83
2019-03-21T11:59:46.491Z,11.90
2019-03-21T12:02:09.878Z,11.86
2019-03-21T12:04:41.632Z,12.00
2019-03-21T12:07:13.331Z,12.04
2019-03-21T12:09:45.310Z,12.03
2019-03-21T12:12:17.110Z,12.10
2019-03-21T12:14:48.908Z,12.10
2019-03-21T12:17:20.641Z,12.21
2019-03-21T12:19:52.540Z,12.15
2019-03-21T12:22:29.972Z,12.14
2019-03-21T12:24:57.905Z,12.17
2019-03-21T12:27:29.806Z,12.23
2019-03-21T12:30:01.610Z,12.23
2019-03-21T12:32:33.434Z,12.21
2019-03-21T12:35:06.065Z,12.27
2019-03-21T12:37:37.867Z,12.25
2019-03-21T12:40:11.061Z,12.28
2019-03-21T12:42:44.245Z,12.31
2019-03-21T12:45:16.407Z,12.31
2019-03-21T12:47:48.138Z,12.45
2019-03-21T12:50:20.421Z,12.48
2019-03-21T12:52:53.176Z,12.48
2019-03-21T12:55:24.997Z,12.20
2019-03-21T12:57:56.947Z,12.23
2019-03-21T13:00:43.202Z,12.23
2019-03-21T13:03:15.452Z,12.29
2019-03-21T13:05:47.211Z,12.30
2019-03-21T13:08:18.961Z,12.19
2019-03-21T13:10:50.777Z,12.20
2019-03-21T13:13:22.712Z,12.17
2019-03-21T13:15:54.525Z,12.25
2019-03-21T13:18:26.489Z,12.38
2019-03-21T13:20:58.681Z,12.19
2019-03-21T13:23:30.511Z,12.14
2019-03-21T13:26:02.283Z,12.38
2019-03-21T13:28:34.378Z,12.36
2019-03-21T13:31:06.278Z,12.31
2019-03-21T13:33:38.020Z,12.29
2019-03-21T13:36:09.977Z,12.20
2019-03-21T13:38:42.813Z,12.33
2019-03-21T13:41:14.807Z,12.29
2019-03-21T13:43:46.569Z,12.29
2019-03-21T13:46:18.516Z,12.29
2019-03-21T13:48:50.353Z,12.16
2019-03-21T13:51:25.799Z,12.38
2019-03-21T13:53:57.552Z,12.37
2019-03-21T13:56:37.796Z,12.33
2019-03-21T13:59:03.007Z,12.25
2019-03-21T14:01:34.771Z,12.28
2019-03-21T14:04:06.635Z,12.40
2019-03-21T14:06:38.425Z,12.34
2019-03-21T14:09:10.434Z,12.31
2019-03-21T14:11:42.214Z,12.29
2019-03-21T14:14:14.011Z,12.35
2019-03-21T14:16:45.824Z,12.43
2019-03-21T14:19:17.660Z,12.38
2019-03-21T14:21:49.370Z,12.32
2019-03-21T14:24:21.391Z,12.31
2019-03-21T14:26:53.287Z,12.23
2019-03-21T14:29:25.089Z,12.10
2019-03-21T14:31:57.052Z,12.10
2019-03-21T14:34:28.784Z,12.18
2019-03-21T14:37:00.616Z,12.20
2019-03-21T14:39:32.505Z,12.24
2019-03-21T14:42:04.653Z,12.22
2019-03-21T14:44:36.477Z,12.11
2019-03-21T14:47:08.388Z,12.03
2019-03-21T14:49:40.284Z,12.08
2019-03-21T14:52:12.050Z,12.13
2019-03-21T14:54:58.833Z,12.08
2019-03-21T14:57:30.858Z,11.93
2019-03-21T15:00:03.134Z,11.82
2019-03-21T15:02:35.985Z,11.90
2019-03-21T15:05:09.464Z,11.79
2019-03-21T15:07:41.233Z,11.92
2019-03-21T15:10:14.226Z,11.71
2019-03-21T15:12:46.544Z,11.77
2019-03-21T15:15:18.401Z,11.68
2019-03-21T15:17:51.479Z,11.75
2019-03-21T15:20:23.265Z,11.57
2019-03-21T15:22:57.057Z,11.51
2019-03-21T15:25:29.244Z,11.54
2019-03-21T15:28:01.535Z,11.66
2019-03-21T15:30:36.699Z,11.54
2019-03-21T15:33:08.680Z,11.61
2019-03-21T15:35:40.523Z,11.47
2019-03-21T15:38:12.425Z,11.51
2019-03-21T15:40:44.365Z,11.45
2019-03-21T15:43:16.363Z,11.34
2019-03-21T15:45:48.456Z,11.38
2019-03-21T15:48:21.080Z,11.40
2019-03-21T15:51:03.845Z,11.24
2019-03-21T15:53:26.672Z,11.25
2019-03-21T15:55:59.249Z,11.24
2019-03-21T15:58:31.392Z,11.15
2019-03-21T16:01:03.383Z,11.18
2019-03-21T16:03:35.651Z,11.20
2019-03-21T16:06:07.563Z,11.18
2019-03-21T16:08:40.117Z,11.13
2019-03-21T16:11:11.938Z,11.23
2019-03-21T16:13:44.400Z,11.33
2019-03-21T16:16:16.128Z,11.28
2019-03-21T16:18:50.333Z,11.23
2019-03-21T16:21:22.089Z,11.25
2019-03-21T16:24:04.670Z,11.04
2019-03-21T16:26:27.316Z,11.05
2019-03-21T16:28:59.078Z,11.08
2019-03-21T16:31:31.692Z,11.01
2019-03-21T16:34:03.953Z,11.06
2019-03-21T16:36:35.712Z,11.10
2019-03-21T16:39:08.949Z,11.00
2019-03-21T16:41:40.698Z,11.05
2019-03-21T16:44:12.618Z,10.87
2019-03-21T16:46:44.897Z,11.00
2019-03-21T16:49:16.844Z,11.00
2019-03-21T16:51:48.552Z,11.02
2019-03-21T16:54:20.343Z,10.95
2019-03-21T16:56:52.520Z,10.99
2019-03-21T16:59:24.703Z,11.07
2019-03-21T17:01:56.471Z,11.02
2019-03-21T17:04:28.721Z,10.96
2019-03-21T17:07:03.811Z,11.04
2019-03-21T17:09:35.656Z,11.02
2019-03-21T17:12:07.516Z,10.87
2019-03-21T17:14:39.331Z,10.87
2019-03-21T17:17:11.508Z,10.92
2019-03-21T17:19:43.369Z,10.94
2019-03-21T17:22:15.172Z,10.90
2019-03-21T17:24:46.934Z,10.85
2019-03-21T17:27:18.664Z,10.63
2019-03-21T17:29:50.446Z,10.65
2019-03-21T17:32:22.784Z,10.74
2019-03-21T17:34:54.833Z,10.76
2019-03-21T17:37:31.793Z,10.68
2019-03-21T17:40:04.038Z,10.62
2019-03-21T17:42:35.903Z,10.64
2019-03-21T17:45:08.417Z,10.70
2019-03-21T17:47:40.716Z,10.67
2019-03-21T17:50:13.621Z,10.75
2019-03-21T17:52:45.520Z,10.61
2019-03-21T17:55:17.976Z,10.70
2019-03-21T17:57:49.951Z,10.68
2019-03-21T18:00:24.105Z,10.74
2019-03-21T18:02:56.289Z,10.67
2019-03-21T18:05:28.190Z,10.60
2019-03-21T18:08:00.135Z,10.61
2019-03-21T18:10:34.674Z,10.52
2019-03-21T18:13:06.599Z,10.61
2019-03-21T18:15:38.697Z,10.52
2019-03-21T18:18:10.520Z,10.52
2019-03-21T18:20:42.206Z,10.50
2019-03-21T18:23:14.031Z,10.47
2019-03-21T18:25:46.281Z,10.49
2019-03-21T18:28:18.057Z,10.49
2019-03-21T18:30:49.897Z,10.43
2019-03-21T18:33:22.140Z,10.51
2019-03-21T18:35:54.772Z,10.42
2019-03-21T18:38:26.726Z,10.45
2019-03-21T18:40:58.490Z,10.32
2019-03-21T18:43:30.270Z,10.26
2019-03-21T18:46:02.147Z,10.37
2019-03-21T18:48:33.856Z,10.34
2019-03-21T18:51:05.570Z,10.31
2019-03-21T18:53:37.638Z,10.22
2019-03-21T18:56:09.698Z,10.25
2019-03-21T18:58:41.621Z,10.23
2019-03-21T19:01:15.939Z,10.13
2019-03-21T19:03:48.103Z,10.19
2019-03-21T19:06:19.874Z,10.30
2019-03-21T19:08:51.584Z,10.03
2019-03-21T19:11:23.433Z,9.94
2019-03-21T19:13:55.147Z,10.00
2019-03-21T19:16:26.954Z,10.03
2019-03-21T19:18:59.182Z,9.96
2019-03-21T19:21:31.215Z,9.93
2019-03-21T19:24:02.921Z,9.77
2019-03-21T19:26:36.002Z,9.76
2019-03-21T19:29:08.991Z,9.81
2019-03-21T19:31:40.792Z,9.78
2019-03-21T19:34:13.556Z,9.95
2019-03-21T19:36:45.291Z,9.93
2019-03-21T19:39:17.029Z,10.01
2019-03-21T19:41:48.851Z,9.98
2019-03-21T19:44:20.569Z,9.93
2019-03-21T19:46:52.464Z,9.97
2019-03-21T19:49:24.214Z,9.91
2019-03-21T19:51:55.987Z,9.97
2019-03-21T19:54:27.784Z,9.93
2019-03-21T19:56:59.935Z,9.88
2019-03-21T19:59:32.210Z,9.93
2019-03-21T20:02:04.359Z,10.02
2019-03-21T20:04:36.250Z,10.04
2019-03-21T20:07:08.239Z,9.97
2019-03-21T20:09:40.553Z,9.91
2019-03-21T20:12:12.292Z,9.93
2019-03-21T20:14:44.106Z,9.91
2019-03-21T20:17:16.130Z,9.85
2019-03-21T20:19:47.961Z,9.97
2019-03-21T20:22:20.740Z,9.91
2019-03-21T20:24:54.089Z,9.85
2019-03-21T20:27:26.353Z,9.95
2019-03-21T20:29:59.236Z,9.90
2019-03-21T20:32:31.020Z,9.86
2019-03-21T20:35:03.094Z,9.92
2019-03-21T20:37:34.913Z,9.92
2019-03-21T20:40:08.499Z,9.92
2019-03-21T20:42:40.195Z,9.87
2019-03-21T20:45:13.580Z,9.91
2019-03-21T20:47:45.348Z,9.88
2019-03-21T20:50:18.206Z,9.85
2019-03-21T20:52:51.707Z,9.81
2019-03-21T20:55:24.013Z,9.77
2019-03-21T20:57:55.845Z,9.84
2019-03-21T21:00:27.882Z,9.70
2019-03-21T21:02:59.665Z,9.76
2019-03-21T21:05:31.416Z,9.83
2019-03-21T21:08:03.181Z,9.66
2019-03-21T21:10:35.059Z,9.69
2019-03-21T21:13:06.929Z,9.63
2019-03-21T21:15:39.126Z,9.60
2019-03-21T21:18:12.041Z,9.63
2019-03-21T21:20:44.859Z,9.65
2019-03-21T21:23:17.168Z,9.72
2019-03-21T21:25:48.897Z,9.71
2019-03-21T21:28:20.634Z,9.62
2019-03-21T21:30:52.474Z,9.63
2019-03-21T21:33:24.224Z,9.67
2019-03-21T21:35:55.961Z,9.59
2019-03-21T21:38:28.236Z,9.70
2019-03-21T21:41:00.498Z,9.65
2019-03-21T21:43:32.411Z,9.55
2019-03-21T21:46:04.209Z,9.44
2019-03-21T21:48:36.133Z,9.37
2019-03-21T21:51:07.865Z,9.39
2019-03-21T21:53:41.020Z,9.53
2019-03-21T21:56:17.508Z,9.56
2019-03-21T21:58:46.267Z,9.52
2019-03-21T22:01:18.027Z,9.46
2019-03-21T22:03:50.094Z,9.47
2019-03-21T22:06:22.399Z,9.50
2019-03-21T22:08:54.154Z,9.37
2019-03-21T22:11:25.986Z,9.46
2019-03-21T22:13:58.149Z,9.41
2019-03-21T22:16:29.971Z,9.26
2019-03-21T22:19:01.697Z,9.38
2019-03-21T22:21:33.494Z,9.28
2019-03-21T22:24:05.722Z,9.22
2019-03-21T22:26:37.986Z,9.31
2019-03-21T22:29:09.847Z,9.31
2019-03-21T22:31:41.714Z,9.32
2019-03-21T22:34:13.548Z,9.32
2019-03-21T22:36:49.541Z,9.21
2019-03-21T22:39:18.780Z,9.28
2019-03-21T22:41:52.041Z,9.33
2019-03-21T22:44:23.842Z,9.28
2019-03-21T22:46:56.448Z,9.35
2019-03-21T22:49:28.142Z,9.27
2019-03-21T22:51:59.923Z,9.20
2019-03-21T22:54:31.663Z,9.36
2019-03-21T22:57:03.510Z,9.34
2019-03-21T22:59:35.805Z,9.35
2019-03-21T23:02:07.638Z,9.40
2019-03-21T23:04:39.433Z,9.36
2019-03-21T23:07:11.201Z,9.39
2019-03-21T23:09:42.996Z,9.38
2019-03-21T23:12:15.683Z,9.30
2019-03-21T23:14:47.277Z,9.36
2019-03-21T23:17:19.017Z,9.35
2019-03-21T23:19:51.204Z,9.26
2019-03-21T23:22:22.894Z,9.30
2019-03-21T23:24:54.620Z,9.33
2019-03-21T23:27:26.454Z,9.21
2019-03-21T23:29:59.780Z,9.23
2019-03-21T23:32:31.573Z,9.24
2019-03-21T23:35:03.352Z,9.32
2019-03-21T23:37:35.354Z,9.33
2019-03-21T23:40:09.835Z,9.39
2019-03-21T23:42:41.633Z,9.50
2019-03-21T23:45:13.970Z,9.45
2019-03-21T23:48:24.041Z,9.49
2019-03-21T23:50:55.832Z,9.50
2019-03-21T23:53:27.556Z,9.25
2019-03-21T23:55:59.829Z,9.15
2019-03-21T23:58:31.696Z,9.12
